Cemar Estates, Indiana
Current Conditions -  °F | °C
As of 7:53 PM on Monday 26 Jan 2015 (Local Time) from KHUF Reporting Station
Overcast Overcast  
Wind Chill: 23°   Ceiling: 1400
Heat Index: 28°   Visibility: 10mi
Dew Point: 23°   Wind: 5mph
Humidity: 81%   Direction: 220°SW
Pressure: 29.95"   Gusts: NA
Location:  39.543°N, 87.3153°W
Report Text: KHUF 270053Z 22004KT 10SM BKN014 OVC041 M02/M05 A2995 RMK AO2 SLP148 T10221050
Loading
Personal Weather Stations






























Interactive Weather Map New forecast layout! Learn more

10-Day Weather Forecast

Advertisements
Track Severe Weather on mobile